Time;durP1;ratioP1;P1;durP2;ratioP2;P2;SDS_P1;SDS_P2;PMS_P1;PMS_P2;Temp;Humidity;BMP_temperature;BMP_pressure;BME280_temperature;BME280_humidity;BME280_pressure;Samples;Min_cycle;Max_cycle;Signal;HPM_P1;HPM_P2
2022/02/02 00:00:38;;;;;;;4.45;1.63;;;;;;;8.00;99.79;99543.97;4899535;29;20040;-72
2022/02/02 00:03:10;;;;;;;13.80;1.90;;;;;;;7.86;99.76;99544.56;4907982;29;20426;-72
2022/02/02 00:08:19;;;;;;;1.15;0.82;;;;;;;7.80;100.00;99548.72;4903975;29;20052;-71
2022/02/02 00:13:54;;;;;;;10.17;1.23;;;;;;;7.85;100.00;99555.66;4910789;29;20044;-71
2022/02/02 00:24:13;;;;;;;10.10;1.02;;;;;;;7.86;99.40;99559.88;4903123;29;20071;-71
2022/02/02 00:26:43;;;;;;;6.65;1.88;;;;;;;8.03;97.78;99548.63;4900248;29;20048;-72
2022/02/02 00:29:14;;;;;;;4.40;0.98;;;;;;;8.12;97.42;99546.44;4904289;29;20036;-71
2022/02/02 00:31:49;;;;;;;3.05;1.33;;;;;;;7.98;98.61;99551.63;4931604;29;20032;-71
2022/02/02 00:34:19;;;;;;;3.80;1.20;;;;;;;8.00;96.50;99550.13;4914895;29;20464;-71
2022/02/02 00:37:06;;;;;;;10.07;1.65;;;;;;;7.83;98.02;99539.97;4903938;29;20052;-71
2022/02/02 00:39:31;;;;;;;5.63;2.85;;;;;;;7.95;97.01;99547.00;4903844;29;20419;-71
2022/02/02 00:41:57;;;;;;;2.67;0.52;;;;;;;8.01;96.03;99540.94;4906577;29;20032;-71
2022/02/02 00:44:24;;;;;;;2.15;0.50;;;;;;;7.89;95.57;99554.59;4922347;29;20043;-71
2022/02/02 00:46:50;;;;;;;10.10;1.48;;;;;;;7.90;96.04;99549.97;4916751;29;20099;-71
2022/02/02 00:49:16;;;;;;;7.28;1.77;;;;;;;7.88;95.54;99549.56;4909920;29;20036;-71
2022/02/02 00:51:45;;;;;;;8.68;1.48;;;;;;;7.94;96.13;99559.63;4911597;29;20032;-72
2022/02/02 00:54:21;;;;;;;0.63;0.63;;;;;;;7.96;94.71;99549.31;4908457;29;20079;-71
2022/02/02 00:56:48;;;;;;;3.65;0.90;;;;;;;8.02;94.90;99560.47;4920000;29;20091;-72
2022/02/02 00:59:14;;;;;;;2.88;1.05;;;;;;;7.98;94.45;99563.13;4909251;29;20111;-71
2022/02/02 01:01:40;;;;;;;10.18;1.35;;;;;;;7.89;93.70;99559.16;4910209;29;20059;-72
2022/02/02 01:04:05;;;;;;;2.67;0.30;;;;;;;7.83;93.01;99565.97;4910671;29;20551;-72
2022/02/02 01:06:35;;;;;;;9.27;0.65;;;;;;;7.87;92.95;99550.72;4910357;29;20151;-71
2022/02/02 01:19:44;;;;;;;0.98;0.60;;;;;;;7.85;91.40;99582.47;4905987;29;20044;-71
2022/02/02 01:30:09;;;;;;;3.60;0.98;;;;;;;7.75;93.69;99607.97;4905891;29;20115;-71
2022/02/02 01:32:35;;;;;;;1.33;1.08;;;;;;;7.78;94.17;99607.25;4915810;29;20745;-72
2022/02/02 01:35:00;;;;;;;5.97;0.77;;;;;;;7.83;93.91;99609.63;4912100;29;20036;-72
2022/02/02 01:37:27;;;;;;;12.25;1.15;;;;;;;7.82;93.59;99604.66;4922181;29;20036;-71
2022/02/02 01:40:00;;;;;;;3.75;0.95;;;;;;;7.78;93.80;99607.25;4904213;29;20115;-70
2022/02/02 01:42:32;;;;;;;10.55;1.80;;;;;;;7.81;94.54;99621.84;4919510;29;20032;-71
2022/02/02 01:45:12;;;;;;;4.47;1.13;;;;;;;7.79;94.69;99608.03;4920140;29;20084;-72
2022/02/02 01:47:48;;;;;;;1.45;0.80;;;;;;;7.81;94.57;99611.91;4905697;29;20123;-72
2022/02/02 01:50:22;;;;;;;3.35;1.65;;;;;;;7.82;94.85;99610.75;4920825;29;20043;-71
2022/02/02 01:53:15;;;;;;;3.63;0.80;;;;;;;7.75;94.87;99610.66;4911645;29;20103;-72
2022/02/02 01:55:42;;;;;;;6.05;1.90;;;;;;;7.79;94.92;99616.06;4912726;29;20513;-71
2022/02/02 02:00:34;;;;;;;7.20;2.10;;;;;;;7.93;94.29;99611.69;4908883;29;20044;-71
2022/02/02 02:03:02;;;;;;;3.90;0.73;;;;;;;7.87;94.22;99607.00;4908095;29;20044;-72
2022/02/02 02:05:27;;;;;;;3.10;0.80;;;;;;;7.86;93.56;99616.94;4906262;29;20067;-70
2022/02/02 02:07:53;;;;;;;4.53;0.85;;;;;;;7.71;93.41;99627.81;4914558;29;20058;-70
2022/02/02 02:10:20;;;;;;;7.95;1.55;;;;;;;7.62;93.79;99640.69;4900886;29;20040;-72
2022/02/02 02:12:55;;;;;;;2.40;0.57;;;;;;;7.73;93.06;99623.66;4900457;29;20040;-71
2022/02/02 02:15:24;;;;;;;2.78;1.58;;;;;;;7.73;92.74;99630.91;4904201;29;20028;-72
2022/02/02 02:17:50;;;;;;;7.40;0.85;;;;;;;7.74;92.72;99633.22;4923366;29;20497;-71
2022/02/02 02:20:16;;;;;;;3.42;1.35;;;;;;;7.86;91.87;99634.91;4904526;29;20115;-71
2022/02/02 02:22:43;;;;;;;1.10;0.50;;;;;;;7.84;91.41;99634.53;4905877;29;20549;-71
2022/02/02 02:25:09;;;;;;;3.15;1.60;;;;;;;7.81;91.01;99644.06;4906349;29;20063;-71
2022/02/02 02:27:35;;;;;;;4.57;0.70;;;;;;;7.79;91.74;99650.91;4916371;29;20035;-71
2022/02/02 02:30:07;;;;;;;4.43;0.85;;;;;;;7.83;91.72;99657.88;4901440;29;20040;-71
2022/02/02 02:57:15;;;;;;;5.95;0.73;;;;;;;7.84;90.21;99677.41;4917570;29;20060;-72
2022/02/02 03:00:07;;;;;;;1.33;0.60;;;;;;;7.90;89.88;99671.38;4904656;29;20555;-71
2022/02/02 03:13:44;;;;;;;7.20;0.88;;;;;;;7.93;89.72;99669.88;4902499;29;20087;-72
2022/02/02 03:30:31;;;;;;;1.65;0.65;;;;;;;7.49;91.20;99669.56;4880493;29;20052;-71
2022/02/02 03:49:29;;;;;;;0.30;0.28;;;;;;;7.74;89.12;99696.78;4913101;29;20039;-71
2022/02/02 03:52:27;;;;;;;3.17;0.52;;;;;;;7.80;89.35;99701.44;4920321;29;20051;-70
2022/02/02 03:59:44;;;;;;;1.50;0.32;;;;;;;7.86;89.26;99696.56;4906087;29;20040;-71
2022/02/02 04:02:19;;;;;;;5.22;1.30;;;;;;;7.83;89.54;99706.09;4915514;29;20028;-71
2022/02/02 04:04:52;;;;;;;2.30;0.47;;;;;;;7.77;89.09;99718.25;4905546;29;20071;-70
2022/02/02 04:07:22;;;;;;;5.40;1.45;;;;;;;7.78;90.38;99708.31;4909300;29;20076;-70
2022/02/02 04:09:48;;;;;;;5.93;0.55;;;;;;;7.66;90.16;99711.19;4910935;29;20086;-71
2022/02/02 05:04:28;;;;;;;11.35;1.08;;;;;;;7.78;92.92;99778.00;4903807;29;20596;-71
2022/02/02 05:53:20;;;;;;;5.97;0.65;;;;;;;7.76;94.99;99845.31;4904635;29;20119;-72
2022/02/02 05:55:46;;;;;;;1.48;0.60;;;;;;;7.71;94.90;99837.59;4920929;29;20050;-73
2022/02/02 05:58:11;;;;;;;0.52;0.40;;;;;;;7.73;95.24;99858.66;4920704;29;20040;-70
2022/02/02 06:00:39;;;;;;;1.85;0.32;;;;;;;7.74;93.89;99873.63;4897434;29;20394;-70
2022/02/02 06:03:13;;;;;;;5.57;1.05;;;;;;;7.68;94.17;99865.09;4904306;29;20129;-71
2022/02/02 06:05:40;;;;;;;0.40;0.38;;;;;;;7.62;93.65;99876.44;4909905;29;20043;-71
2022/02/02 06:08:10;;;;;;;0.57;0.50;;;;;;;7.71;93.70;99885.03;4913749;29;20137;-71
2022/02/02 06:10:36;;;;;;;5.80;0.38;;;;;;;7.75;93.49;99875.16;4904934;29;20068;-71
2022/02/02 06:13:02;;;;;;;2.50;1.45;;;;;;;7.76;92.73;99882.09;4896821;29;20059;-71
2022/02/02 06:15:28;;;;;;;2.33;1.25;;;;;;;7.80;92.34;99893.66;4912980;29;20044;-70
2022/02/02 06:17:54;;;;;;;0.93;0.93;;;;;;;7.70;92.24;99888.88;4916254;29;20039;-72
2022/02/02 06:20:20;;;;;;;1.85;0.82;;;;;;;7.64;92.86;99899.09;4900183;29;20063;-72
2022/02/02 06:22:50;;;;;;;1.00;0.57;;;;;;;7.69;92.69;99906.84;4904682;29;20075;-72
2022/02/02 06:25:27;;;;;;;1.88;0.75;;;;;;;7.66;93.36;99909.44;4904628;29;20487;-72
2022/02/02 06:28:01;;;;;;;4.38;0.50;;;;;;;7.79;92.21;99924.25;4901897;29;20112;-72
2022/02/02 06:30:30;;;;;;;2.85;0.73;;;;;;;7.81;91.28;99925.44;4898527;29;20044;-72
2022/02/02 06:33:15;;;;;;;0.70;0.50;;;;;;;7.77;91.46;99934.53;4918002;29;20641;-70
2022/02/02 06:35:40;;;;;;;4.80;0.90;;;;;;;7.82;91.54;99939.63;4914084;29;20044;-70
2022/02/02 06:38:06;;;;;;;0.13;0.13;;;;;;;7.72;91.21;99948.22;4905437;29;20038;-70
2022/02/02 06:40:33;;;;;;;2.65;0.50;;;;;;;7.74;92.00;99964.72;4899800;29;20414;-71
2022/02/02 06:42:59;;;;;;;4.10;0.90;;;;;;;7.68;91.35;99961.56;4904142;29;20050;-72
2022/02/02 06:45:25;;;;;;;1.30;0.55;;;;;;;7.73;91.03;99957.81;4922091;29;20047;-74
2022/02/02 06:47:51;;;;;;;2.13;0.90;;;;;;;7.72;90.97;99972.34;4924163;29;20041;-70
2022/02/02 06:50:29;;;;;;;0.20;0.20;;;;;;;7.58;90.24;99961.34;4915665;29;20382;-74
2022/02/02 06:56:08;;;;;;;0.80;0.60;;;;;;;7.47;89.50;99981.78;4905771;29;20055;-69
2022/02/02 06:58:45;;;;;;;1.85;0.63;;;;;;;7.52;89.83;99998.34;4904024;29;20044;-69
2022/02/02 07:01:35;;;;;;;5.30;0.40;;;;;;;7.47;89.40;100014.66;4905207;29;20098;-70
2022/02/02 07:04:14;;;;;;;6.18;0.43;;;;;;;7.44;90.24;100038.69;4901023;29;20413;-71
2022/02/02 07:06:56;;;;;;;1.23;0.40;;;;;;;7.49;89.17;100033.09;4904019;29;20048;-71
2022/02/02 07:09:44;;;;;;;5.85;0.80;;;;;;;7.55;88.79;100032.44;4903723;29;20054;-71
2022/02/02 07:12:25;;;;;;;3.75;0.70;;;;;;;7.52;88.44;100061.84;4909352;29;20055;-71
2022/02/02 07:15:18;;;;;;;3.40;0.30;;;;;;;7.47;88.79;100049.50;4904298;29;20486;-71
2022/02/02 07:28:03;;;;;;;2.55;0.57;;;;;;;7.37;90.18;100090.22;4901948;29;20048;-70
2022/02/02 07:30:44;;;;;;;2.65;0.47;;;;;;;7.47;90.30;100088.91;4902392;29;20039;-70
2022/02/02 07:33:16;;;;;;;;;;;;;;;7.63;89.22;100087.75;4921891;29;20119;-72
2022/02/02 07:35:48;;;;;;;1.83;0.88;;;;;;;7.69;89.07;100097.06;4902166;29;19915;-73
2022/02/02 07:38:16;;;;;;;4.20;0.57;;;;;;;7.70;89.48;100103.22;4901019;29;20047;-71
2022/02/02 07:40:45;;;;;;;0.38;0.38;;;;;;;7.67;88.95;100106.59;4904514;29;20068;-73
2022/02/02 07:43:21;;;;;;;3.42;0.68;;;;;;;7.63;88.96;100105.72;4901563;29;20043;-72
2022/02/02 07:45:51;;;;;;;8.30;0.75;;;;;;;7.69;89.18;100107.81;4904126;29;20413;-73
2022/02/02 07:48:17;;;;;;;3.45;0.93;;;;;;;7.58;90.09;100112.16;4904810;29;20405;-71
2022/02/02 07:50:42;;;;;;;1.25;0.65;;;;;;;7.62;90.17;100117.56;4904464;29;20040;-71
2022/02/02 07:53:11;;;;;;;2.63;1.27;;;;;;;7.63;90.70;100117.22;4901773;29;20083;-72
2022/02/02 07:55:40;;;;;;;3.15;0.70;;;;;;;7.59;91.25;100112.94;4903476;29;20072;-71
2022/02/02 07:58:07;;;;;;;4.43;0.52;;;;;;;7.66;90.70;100129.16;4904354;29;20043;-70
2022/02/02 08:00:35;;;;;;;2.78;1.15;;;;;;;7.75;90.50;100135.09;4916222;29;20094;-72
2022/02/02 08:05:30;;;;;;;3.90;0.40;;;;;;;7.79;90.54;100149.38;4915141;29;20040;-73
2022/02/02 08:08:11;;;;;;;4.60;0.70;;;;;;;7.76;90.31;100142.78;4903717;29;20024;-70
2022/02/02 08:10:41;;;;;;;0.80;0.77;;;;;;;7.75;89.43;100157.31;4919698;29;20147;-73
2022/02/02 08:13:25;;;;;;;8.07;0.77;;;;;;;7.79;89.64;100162.75;4929139;28;20517;-72
2022/02/02 08:16:00;;;;;;;10.45;0.60;;;;;;;7.73;89.50;100177.56;4912508;29;20032;-70
2022/02/02 08:18:26;;;;;;;3.42;0.50;;;;;;;7.71;88.54;100169.84;4901877;29;20036;-70
2022/02/02 08:21:01;;;;;;;2.45;0.70;;;;;;;7.68;87.32;100194.69;4902826;29;20043;-74
2022/02/02 08:23:26;;;;;;;2.05;0.50;;;;;;;7.71;88.13;100202.03;4910967;29;20445;-70
2022/02/02 08:25:52;;;;;;;4.65;0.50;;;;;;;7.81;88.03;100200.72;4904413;29;20036;-73
2022/02/02 08:28:19;;;;;;;1.13;1.02;;;;;;;7.72;86.63;100194.75;4903633;29;20375;-70
2022/02/02 08:30:45;;;;;;;1.25;0.30;;;;;;;7.76;87.25;100206.34;4897452;29;20997;-71
2022/02/02 08:33:17;;;;;;;3.85;0.68;;;;;;;7.83;87.62;100214.56;4898932;29;20504;-70
2022/02/02 08:35:48;;;;;;;5.68;1.58;;;;;;;7.91;86.99;100208.25;4899391;29;20036;-70
2022/02/02 08:38:35;;;;;;;5.28;1.25;;;;;;;7.87;87.10;100226.91;4902737;29;20040;-72
2022/02/02 08:41:10;;;;;;;3.10;0.88;;;;;;;7.91;86.65;100218.97;4899167;29;20032;-70
2022/02/02 08:43:41;;;;;;;1.08;0.52;;;;;;;7.95;85.83;100243.94;4897534;29;20569;-72
2022/02/02 08:46:12;;;;;;;4.18;0.60;;;;;;;7.97;85.40;100242.50;4897863;29;20036;-71
2022/02/02 08:48:41;;;;;;;4.45;0.68;;;;;;;7.93;85.11;100252.34;4911646;29;20453;-70
2022/02/02 08:51:11;;;;;;;3.85;0.75;;;;;;;7.97;85.62;100249.75;4914839;29;20119;-72
2022/02/02 08:58:48;;;;;;;3.92;1.00;;;;;;;7.97;85.31;100263.16;4916520;29;20050;-71
2022/02/02 09:01:24;;;;;;;11.07;0.65;;;;;;;7.94;85.90;100253.09;4895228;29;20036;-70
2022/02/02 09:06:34;;;;;;;8.10;0.40;;;;;;;7.97;85.68;100263.94;4901733;29;20063;-70
2022/02/02 09:09:10;;;;;;;6.00;0.70;;;;;;;8.05;85.70;100257.59;4897008;29;20048;-70
2022/02/02 09:20:06;;;;;;;5.10;1.00;;;;;;;8.07;83.64;100276.03;4901825;29;20454;-70
2022/02/02 09:25:24;;;;;;;4.90;0.88;;;;;;;8.25;84.47;100284.50;4908770;29;20040;-70
2022/02/02 09:35:51;;;;;;;7.63;0.90;;;;;;;8.58;80.55;100276.84;4902582;29;20551;-70
2022/02/02 09:38:18;;;;;;;4.50;0.60;;;;;;;8.58;80.64;100299.09;4906099;29;20052;-70
2022/02/02 09:43:18;;;;;;;5.35;0.73;;;;;;;8.66;78.82;100310.75;4904801;29;20032;-71
2022/02/02 09:45:46;;;;;;;7.95;1.17;;;;;;;8.79;78.58;100309.50;4904714;29;20537;-72
2022/02/02 09:48:22;;;;;;;2.75;0.30;;;;;;;8.84;77.19;100323.47;4907141;29;20382;-70
2022/02/02 09:50:53;;;;;;;1.70;0.35;;;;;;;8.88;76.82;100313.53;4905269;29;20118;-75
2022/02/02 09:53:37;;;;;;;8.18;1.17;;;;;;;8.83;75.95;100340.69;4905528;29;20071;-73
2022/02/02 09:56:36;;;;;;;7.43;1.27;;;;;;;8.74;76.24;100334.72;4901663;29;20486;-70
2022/02/02 09:59:32;;;;;;;1.65;0.35;;;;;;;8.80;77.13;100348.66;4907426;29;20438;-74
2022/02/02 10:02:29;;;;;;;0.63;0.45;;;;;;;8.91;77.00;100361.19;4901668;29;20041;-70
2022/02/02 10:05:26;;;;;;;3.55;0.45;;;;;;;8.89;76.33;100363.44;4899954;29;20040;-69
2022/02/02 10:08:09;;;;;;;2.55;0.70;;;;;;;8.94;76.08;100365.84;4900569;29;20046;-70
2022/02/02 10:11:06;;;;;;;0.50;0.30;;;;;;;8.95;76.56;100367.41;4898602;29;20406;-71
2022/02/02 10:13:49;;;;;;;2.65;0.75;;;;;;;8.95;75.34;100383.53;4902168;29;20051;-71
2022/02/02 10:16:18;;;;;;;5.07;0.90;;;;;;;8.98;75.23;100388.19;4902886;29;20047;-69
2022/02/02 10:18:44;;;;;;;2.65;0.50;;;;;;;8.97;75.06;100413.50;4905314;29;20064;-71
2022/02/02 10:21:10;;;;;;;3.20;0.75;;;;;;;8.97;75.63;100426.13;4912575;29;20031;-70
2022/02/02 10:23:36;;;;;;;1.08;0.50;;;;;;;9.03;75.74;100425.53;4898210;29;20036;-70
2022/02/02 10:26:20;;;;;;;1.20;0.63;;;;;;;9.02;75.10;100439.28;4922588;29;20527;-71
2022/02/02 10:28:49;;;;;;;10.25;0.40;;;;;;;8.96;75.21;100451.44;4900073;29;20043;-72
2022/02/02 10:31:16;;;;;;;4.28;0.43;;;;;;;8.97;75.27;100463.75;4901455;29;20409;-70
2022/02/02 10:33:42;;;;;;;0.20;0.20;;;;;;;8.95;75.03;100456.03;4905888;29;20040;-72
2022/02/02 10:36:20;;;;;;;4.35;1.25;;;;;;;8.86;75.13;100466.19;4906148;29;20078;-71
2022/02/02 10:39:03;;;;;;;1.58;0.60;;;;;;;8.96;74.92;100475.63;4901111;29;20111;-69
2022/02/02 10:41:56;;;;;;;5.03;0.40;;;;;;;9.02;74.18;100464.25;4917652;29;20132;-72
2022/02/02 10:44:30;;;;;;;1.65;0.65;;;;;;;9.05;72.96;100465.47;4902802;29;20063;-70
2022/02/02 10:47:13;;;;;;;7.95;0.95;;;;;;;9.01;73.08;100478.81;4918560;29;20036;-70
2022/02/02 10:49:50;;;;;;;0.65;0.28;;;;;;;9.01;73.01;100484.19;4901023;29;20071;-72
2022/02/02 10:52:34;;;;;;;1.20;0.40;;;;;;;9.08;72.94;100481.66;4904868;29;20050;-69
2022/02/02 11:01:23;;;;;;;1.08;0.28;;;;;;;9.10;72.53;100487.47;4904653;29;20108;-70
2022/02/02 11:06:41;;;;;;;1.02;0.35;;;;;;;9.30;73.20;100492.88;4902510;29;20036;-71
2022/02/02 11:09:19;;;;;;;0.88;0.52;;;;;;;9.31;72.52;100499.84;4900077;29;20593;-71
2022/02/02 11:11:47;;;;;;;0.45;0.43;;;;;;;9.33;70.46;100503.72;4902427;29;20090;-70
2022/02/02 11:14:36;;;;;;;1.40;0.70;;;;;;;9.35;70.55;100520.25;4906231;29;20115;-69
2022/02/02 11:17:26;;;;;;;2.40;0.60;;;;;;;9.37;71.68;100517.25;4917705;29;20039;-71
2022/02/02 11:19:56;;;;;;;4.57;1.00;;;;;;;9.35;70.02;100522.19;4919697;29;20047;-70
2022/02/02 11:22:31;;;;;;;2.10;0.83;;;;;;;9.26;69.80;100516.22;4902248;29;20042;-73
2022/02/02 11:25:23;;;;;;;4.28;0.60;;;;;;;9.30;70.50;100525.91;4917601;29;20115;-72
2022/02/02 11:27:54;;;;;;;3.30;0.45;;;;;;;9.30;69.56;100523.22;4902063;29;20626;-72
2022/02/02 11:30:22;;;;;;;1.65;0.50;;;;;;;9.32;69.12;100529.03;4904740;29;20040;-74
2022/02/02 11:32:49;;;;;;;1.45;0.38;;;;;;;9.26;69.71;100541.19;4920034;29;20482;-75
2022/02/02 11:35:26;;;;;;;4.07;0.80;;;;;;;9.31;69.74;100546.28;4901605;29;20036;-71
2022/02/02 11:38:00;;;;;;;5.20;1.13;;;;;;;9.14;70.10;100552.00;4894897;29;20047;-71
2022/02/02 11:40:27;;;;;;;1.95;1.20;;;;;;;9.17;70.53;100567.44;4903160;29;20059;-69
2022/02/02 11:43:06;;;;;;;1.00;0.77;;;;;;;9.33;69.05;100570.88;4904283;29;20685;-71
2022/02/02 11:45:36;;;;;;;1.83;0.95;;;;;;;9.46;67.89;100569.69;4904710;29;20630;-73
2022/02/02 11:48:17;;;;;;;2.43;0.80;;;;;;;9.42;68.37;100578.78;4906779;29;20060;-72
2022/02/02 11:50:47;;;;;;;2.57;0.70;;;;;;;9.43;67.84;100589.19;4895770;29;20131;-74
2022/02/02 11:53:48;;;;;;;0.20;0.20;;;;;;;9.36;68.18;100577.47;4907331;29;20040;-69
2022/02/02 11:56:14;;;;;;;0.70;0.35;;;;;;;9.32;67.49;100587.38;4903034;29;20308;-72
2022/02/02 11:58:40;;;;;;;4.15;0.70;;;;;;;9.13;67.51;100589.97;4928283;29;20046;-69
2022/02/02 12:01:12;;;;;;;0.75;0.75;;;;;;;9.14;67.18;100588.84;4904523;29;20036;-71
2022/02/02 12:06:27;;;;;;;5.55;1.25;;;;;;;9.12;67.12;100597.25;4903540;29;20123;-71
2022/02/02 12:57:46;;;;;;;1.67;0.45;;;;;;;9.40;70.71;100651.69;4905319;29;20036;-71
2022/02/02 13:00:20;;;;;;;2.65;0.40;;;;;;;9.31;72.49;100663.75;4910427;29;20044;-71
2022/02/02 13:02:47;;;;;;;3.22;0.90;;;;;;;9.22;70.42;100665.78;4907492;29;20572;-70
2022/02/02 13:05:15;;;;;;;4.60;1.15;;;;;;;9.05;69.32;100667.69;4907395;29;20036;-71
2022/02/02 13:07:42;;;;;;;2.05;0.70;;;;;;;9.16;68.16;100672.53;4907718;29;20048;-70
2022/02/02 13:10:12;;;;;;;1.25;0.90;;;;;;;9.02;68.06;100668.38;4906134;29;20111;-70
2022/02/02 13:12:46;;;;;;;0.20;0.20;;;;;;;8.96;67.80;100677.78;4920089;29;20079;-70
2022/02/02 13:17:50;;;;;;;6.50;0.50;;;;;;;8.98;68.43;100680.91;4904543;29;20035;-70
2022/02/02 13:20:29;;;;;;;0.65;0.60;;;;;;;9.05;67.77;100677.66;4905459;29;20115;-71
2022/02/02 13:23:05;;;;;;;2.67;0.50;;;;;;;9.07;68.39;100680.78;4905627;29;20453;-70
2022/02/02 13:25:32;;;;;;;6.35;0.68;;;;;;;9.14;68.40;100689.00;4921135;29;20083;-71
2022/02/02 13:27:59;;;;;;;0.22;0.22;;;;;;;9.09;68.54;100676.63;4905098;29;20639;-70
2022/02/02 13:30:39;;;;;;;0.20;0.20;;;;;;;9.00;68.60;100678.66;4904657;29;20565;-71
2022/02/02 13:33:31;;;;;;;1.50;0.93;;;;;;;9.01;68.02;100693.69;4900701;29;20396;-71
2022/02/02 13:36:27;;;;;;;0.43;0.43;;;;;;;9.16;67.98;100694.03;4905045;29;20397;-71
2022/02/02 13:39:16;;;;;;;2.15;0.50;;;;;;;9.29;67.14;100687.50;4904009;29;20151;-71
2022/02/02 13:44:56;;;;;;;1.63;0.28;;;;;;;9.26;65.62;100707.75;4902473;29;20051;-71
2022/02/02 13:53:22;;;;;;;0.63;0.45;;;;;;;9.01;63.50;100715.16;4919878;29;20046;-71
2022/02/02 13:56:06;;;;;;;3.17;0.60;;;;;;;8.86;64.99;100713.22;4898502;29;20032;-71
2022/02/02 14:04:20;;;;;;;3.83;0.28;;;;;;;8.98;67.15;100742.69;4896993;29;20052;-70
2022/02/02 14:09:20;;;;;;;0.35;0.25;;;;;;;8.93;67.97;100740.25;4898592;29;20126;-71
2022/02/02 14:33:26;;;;;;;1.83;0.63;;;;;;;8.27;82.30;100840.19;4901252;29;20115;-70
2022/02/02 14:35:57;;;;;;;1.70;0.50;;;;;;;8.31;83.06;100847.25;4901144;29;20088;-70
2022/02/02 14:38:22;;;;;;;5.82;0.75;;;;;;;8.36;84.83;100839.00;4901024;29;20645;-73
2022/02/02 14:43:58;;;;;;;6.63;0.88;;;;;;;8.25;87.40;100851.28;4901555;29;20032;-73
2022/02/02 14:46:15;;;;;;;4.88;0.50;;;;;;;8.15;87.79;100839.03;4897671;29;20046;-71
2022/02/02 14:49:28;;;;;;;0.80;0.50;;;;;;;8.11;89.18;100848.09;4897945;29;20056;-72
2022/02/02 15:16:45;;;;;;;0.63;0.40;;;;;;;8.09;87.84;100867.19;4899580;29;20471;-71
2022/02/02 15:29:05;;;;;;;1.77;0.75;;;;;;;7.88;85.82;100898.66;4896835;29;20098;-71
2022/02/02 15:31:32;;;;;;;0.57;0.50;;;;;;;7.71;86.23;100898.03;4897642;29;20068;-71
2022/02/02 15:33:59;;;;;;;2.28;0.75;;;;;;;7.81;84.89;100902.97;4898974;29;20047;-71
2022/02/02 15:39:13;;;;;;;2.17;0.50;;;;;;;7.74;84.52;100918.81;4903317;29;20521;-71
2022/02/02 15:41:55;;;;;;;1.08;0.65;;;;;;;7.81;83.69;100917.19;4903733;29;20032;-71
2022/02/02 15:55:24;;;;;;;3.60;1.05;;;;;;;7.60;83.20;100945.91;4900059;29;20394;-71
2022/02/02 15:58:10;;;;;;;5.10;1.00;;;;;;;7.74;82.65;100954.44;4901171;29;20536;-72
2022/02/02 16:03:25;;;;;;;0.60;0.50;;;;;;;7.73;81.70;100957.44;4902909;29;20412;-70
2022/02/02 16:05:55;;;;;;;3.42;0.85;;;;;;;7.68;81.44;100957.66;4901479;29;20036;-71
2022/02/02 16:08:24;;;;;;;1.48;0.35;;;;;;;7.57;81.78;100956.47;4906358;29;20446;-71
2022/02/02 16:15:59;;;;;;;;;;;;;;;7.36;82.73;100982.44;4903206;29;20381;-71
2022/02/02 16:37:15;;;;;;;2.45;0.43;;;;;;;7.16;83.18;101008.88;4906874;29;20036;-70
2022/02/02 16:39:53;;;;;;;0.75;0.63;;;;;;;7.19;84.20;101021.63;4909011;29;20036;-70
2022/02/02 16:45:04;;;;;;;0.20;0.20;;;;;;;7.32;83.37;101020.59;4906295;29;20123;-71
2022/02/02 16:47:30;;;;;;;0.50;0.32;;;;;;;7.16;83.96;101029.53;4917587;29;20071;-71
2022/02/02 16:49:55;;;;;;;0.47;0.45;;;;;;;7.36;82.92;101036.03;4907231;29;20115;-71
2022/02/02 16:52:24;;;;;;;0.25;0.25;;;;;;;7.35;82.99;101039.81;4905322;29;20077;-71
2022/02/02 16:54:50;;;;;;;1.83;1.05;;;;;;;7.24;84.00;101040.19;4901223;29;20123;-71
2022/02/02 17:30:09;;;;;;;2.00;0.50;;;;;;;6.80;86.60;101072.00;4903730;29;20453;-71
2022/02/02 17:32:45;;;;;;;2.33;0.55;;;;;;;6.94;86.38;101076.06;4898007;29;20040;-71
2022/02/02 17:38:01;;;;;;;6.07;1.55;;;;;;;6.89;86.25;101086.94;4900910;29;20036;-71
2022/02/02 17:43:20;;;;;;;0.30;0.30;;;;;;;6.89;86.76;101091.53;4899786;29;20036;-72
2022/02/02 18:00:20;;;;;;;1.90;0.95;;;;;;;6.63;88.91;101109.50;4908237;29;20060;-71
2022/02/02 18:20:23;;;;;;;3.55;0.57;;;;;;;6.44;90.63;101125.88;4904713;29;20046;-72
2022/02/02 18:22:57;;;;;;;2.00;0.55;;;;;;;6.54;90.10;101122.91;4916985;29;20032;-71
2022/02/02 18:25:42;;;;;;;3.10;0.75;;;;;;;6.62;89.59;101119.41;4906547;29;20091;-71
2022/02/02 18:33:51;;;;;;;1.98;0.50;;;;;;;6.49;89.88;101135.63;4910051;29;20120;-71
2022/02/02 18:36:46;;;;;;;5.13;1.42;;;;;;;6.52;89.34;101140.34;4898335;29;20485;-71
2022/02/02 18:54:27;;;;;;;2.15;0.90;;;;;;;6.44;89.45;101141.94;4903244;29;20044;-71
2022/02/02 19:08:13;;;;;;;7.05;1.55;;;;;;;6.22;90.77;101134.84;4899973;29;20409;-72
2022/02/02 20:09:51;;;;;;;6.95;2.53;;;;;;;5.53;93.48;101125.81;4913401;29;20460;-72
2022/02/02 20:12:11;;;;;;;9.80;1.08;;;;;;;5.55;93.67;101130.09;4917499;29;20128;-72
2022/02/02 20:14:37;;;;;;;5.35;1.27;;;;;;;5.57;93.88;101135.91;4903006;29;20051;-72
2022/02/02 20:17:04;;;;;;;5.82;1.30;;;;;;;5.57;93.45;101141.25;4904779;29;20039;-72
2022/02/02 20:19:29;;;;;;;2.20;1.05;;;;;;;5.53;93.70;101126.94;4903097;29;20119;-71
2022/02/02 20:21:56;;;;;;;1.65;0.88;;;;;;;5.46;93.96;101130.03;4901862;29;20110;-72
2022/02/02 20:24:26;;;;;;;5.28;1.13;;;;;;;5.44;93.17;101127.69;4903050;29;20103;-73
2022/02/02 20:26:52;;;;;;;2.45;1.00;;;;;;;5.40;93.43;101129.41;4918908;29;20123;-71
2022/02/02 20:29:18;;;;;;;2.95;1.10;;;;;;;5.36;93.76;101136.44;4902639;29;20043;-72
2022/02/02 20:31:44;;;;;;;3.72;1.40;;;;;;;5.36;94.03;101135.69;4900881;29;20039;-72
2022/02/02 20:34:13;;;;;;;2.78;1.08;;;;;;;5.33;93.55;101137.06;4901708;29;20132;-72
2022/02/02 20:36:40;;;;;;;13.18;3.08;;;;;;;5.32;93.82;101145.41;4904940;29;20051;-72
2022/02/02 20:39:20;;;;;;;6.03;1.58;;;;;;;5.30;93.65;101143.00;4901427;29;20056;-72
2022/02/02 20:41:46;;;;;;;4.90;0.90;;;;;;;5.24;94.29;101148.81;4898831;29;20166;-71
2022/02/02 20:44:21;;;;;;;1.13;0.93;;;;;;;5.27;94.47;101164.19;4892158;29;20573;-72
2022/02/02 21:00:09;;;;;;;6.53;1.52;;;;;;;5.23;94.32;101160.56;4895124;29;20050;-72
2022/02/02 21:03:52;;;;;;;2.00;0.90;;;;;;;5.17;94.96;101183.94;4904307;29;20039;-71
2022/02/02 21:06:27;;;;;;;1.48;1.10;;;;;;;5.14;95.30;101171.22;4897317;29;20066;-70
2022/02/02 21:09:17;;;;;;;2.97;1.17;;;;;;;5.09;95.32;101163.31;4902021;29;20445;-71
2022/02/02 21:14:13;;;;;;;1.35;0.60;;;;;;;5.12;95.17;101168.06;4899310;29;20024;-71
2022/02/02 21:16:42;;;;;;;2.00;0.88;;;;;;;5.08;95.85;101167.09;4898267;29;21263;-71
2022/02/02 21:19:10;;;;;;;1.30;0.98;;;;;;;5.09;95.76;101174.00;4898131;29;20035;-72
2022/02/02 21:21:49;;;;;;;2.10;0.93;;;;;;;5.04;96.42;101168.00;4902902;29;20048;-73
2022/02/02 21:29:16;;;;;;;4.80;0.93;;;;;;;4.94;96.85;101149.56;4901827;29;20043;-72
2022/02/02 21:31:42;;;;;;;5.82;0.90;;;;;;;5.01;97.44;101141.94;4901544;29;20051;-73
2022/02/02 21:34:08;;;;;;;2.78;0.90;;;;;;;5.00;97.08;101151.81;4899703;29;20064;-73
2022/02/02 21:36:34;;;;;;;1.15;0.80;;;;;;;4.93;97.97;101146.13;4901800;29;20044;-72
2022/02/02 21:39:07;;;;;;;1.50;0.80;;;;;;;5.00;97.85;101148.34;4901040;29;20076;-72
2022/02/02 21:41:38;;;;;;;3.13;1.20;;;;;;;5.01;97.99;101150.72;4904627;29;20490;-71
2022/02/02 21:44:06;;;;;;;4.95;1.00;;;;;;;5.04;98.04;101154.66;4905535;29;20038;-71
2022/02/02 21:46:32;;;;;;;2.50;1.05;;;;;;;5.07;97.78;101168.16;4902911;29;20059;-72
2022/02/02 21:49:00;;;;;;;3.38;0.93;;;;;;;5.04;97.92;101160.78;4902497;29;20115;-71
2022/02/02 21:51:39;;;;;;;1.02;0.73;;;;;;;5.04;97.72;101166.13;4900090;29;20059;-71
2022/02/02 21:54:04;;;;;;;3.90;1.13;;;;;;;4.99;98.38;101168.94;4902074;29;20118;-71
2022/02/02 21:56:31;;;;;;;4.05;0.93;;;;;;;4.97;98.23;101171.13;4905810;29;20130;-71
2022/02/02 21:58:56;;;;;;;1.05;0.73;;;;;;;4.99;97.70;101168.94;4898375;29;20438;-72
2022/02/02 22:01:24;;;;;;;6.88;1.23;;;;;;;5.00;98.18;101164.34;4896660;29;20514;-70
2022/02/02 22:03:50;;;;;;;4.32;1.42;;;;;;;4.93;98.62;101167.47;4903799;29;20028;-71
2022/02/02 22:06:15;;;;;;;1.70;0.90;;;;;;;4.88;98.63;101164.13;4905737;29;20046;-71
2022/02/02 22:08:42;;;;;;;1.95;0.85;;;;;;;4.90;98.94;101160.06;4901788;29;20450;-72
2022/02/02 22:11:07;;;;;;;4.47;1.55;;;;;;;4.82;99.46;101160.78;4896604;29;20144;-70
2022/02/02 22:13:42;;;;;;;1.08;0.95;;;;;;;4.84;99.26;101150.59;4908734;29;20088;-70
2022/02/02 22:16:15;;;;;;;1.70;1.02;;;;;;;4.80;100.00;101154.19;4915557;29;20043;-71